createdAt,value
2019-05-09T00:02:05.499Z,7.73
2019-05-09T00:04:33.980Z,9.40
2019-05-09T00:07:03.591Z,13.50
2019-05-09T00:09:33.614Z,14.23
2019-05-09T00:12:03.750Z,10.70
2019-05-09T00:14:34.183Z,7.93
2019-05-09T00:17:03.831Z,5.17
2019-05-09T00:19:33.401Z,5.30
2019-05-09T00:22:03.296Z,10.83
2019-05-09T00:24:33.233Z,7.67
2019-05-09T00:27:03.860Z,7.67
2019-05-09T00:29:40.175Z,9.53
2019-05-09T00:32:23.898Z,7.13
2019-05-09T00:35:14.105Z,5.07
2019-05-09T00:38:00.683Z,5.37
2019-05-09T00:40:29.150Z,3.73
2019-05-09T00:42:57.914Z,3.30
2019-05-09T00:45:40.185Z,2.23
2019-05-09T00:48:09.029Z,2.30
2019-05-09T00:50:37.803Z,2.30
2019-05-09T00:53:06.259Z,2.60
2019-05-09T00:55:34.735Z,2.53
2019-05-09T00:58:04.201Z,2.30
2019-05-09T01:00:33.382Z,2.43
2019-05-09T01:03:03.598Z,2.47
2019-05-09T01:05:34.157Z,2.77
2019-05-09T01:08:04.328Z,3.43
2019-05-09T01:10:34.225Z,2.53
2019-05-09T01:13:03.616Z,2.30
2019-05-09T01:15:33.453Z,1.70
2019-05-09T01:18:04.145Z,5.20
2019-05-09T01:20:33.339Z,3.23
2019-05-09T01:23:03.481Z,3.00
2019-05-09T01:25:33.509Z,2.93
2019-05-09T01:28:03.347Z,3.27
2019-05-09T01:30:33.581Z,2.40
2019-05-09T01:33:13.560Z,2.63
2019-05-09T01:35:43.372Z,3.90
2019-05-09T01:38:14.266Z,2.73
2019-05-09T01:40:43.895Z,2.47
2019-05-09T01:43:13.825Z,3.30
2019-05-09T01:45:43.156Z,2.53
2019-05-09T01:48:13.959Z,4.23
2019-05-09T01:50:43.230Z,12.87
2019-05-09T01:53:13.552Z,11.23
2019-05-09T01:56:00.643Z,7.20
2019-05-09T01:58:30.031Z,8.20
2019-05-09T02:00:58.537Z,11.97
2019-05-09T02:03:27.335Z,7.53
2019-05-09T02:05:56.127Z,7.27
2019-05-09T02:08:24.913Z,5.53
2019-05-09T02:10:54.292Z,12.20
2019-05-09T02:13:23.238Z,9.67
2019-05-09T02:16:29.149Z,8.60
2019-05-09T02:19:10.158Z,13.23
2019-05-09T02:21:38.638Z,10.43
2019-05-09T02:24:07.110Z,11.93
2019-05-09T02:26:35.582Z,11.23
2019-05-09T02:29:04.075Z,10.67
2019-05-09T02:31:35.366Z,10.83
2019-05-09T02:34:04.911Z,12.10
2019-05-09T02:36:32.926Z,12.10
2019-05-09T02:39:01.388Z,11.73
2019-05-09T02:41:29.879Z,12.70
2019-05-09T02:43:58.670Z,11.00
2019-05-09T02:46:33.137Z,9.37
2019-05-09T02:49:01.580Z,11.03
2019-05-09T02:51:30.043Z,9.33
2019-05-09T02:53:58.876Z,7.33
2019-05-09T02:56:29.449Z,6.33
2019-05-09T02:59:18.961Z,9.83
2019-05-09T03:01:59.896Z,7.87
2019-05-09T03:04:28.632Z,7.03
2019-05-09T03:06:59.692Z,7.13
2019-05-09T03:09:28.686Z,8.70
2019-05-09T03:11:59.059Z,12.77
2019-05-09T03:14:28.738Z,13.10
2019-05-09T03:16:58.793Z,10.00
2019-05-09T03:19:29.834Z,11.30
2019-05-09T03:22:02.370Z,10.67
2019-05-09T03:24:30.849Z,10.17
2019-05-09T03:27:03.636Z,10.27
2019-05-09T03:29:39.413Z,10.03
2019-05-09T03:32:09.172Z,12.53
2019-05-09T03:34:37.340Z,11.63
2019-05-09T03:37:05.782Z,12.40
2019-05-09T03:39:34.530Z,9.50
2019-05-09T03:42:03.020Z,10.50
2019-05-09T03:44:31.491Z,12.37
2019-05-09T03:47:13.175Z,9.37
2019-05-09T03:49:41.649Z,12.27
2019-05-09T03:52:10.108Z,14.07
2019-05-09T03:54:38.845Z,13.63
2019-05-09T03:57:24.507Z,15.13
2019-05-09T03:59:52.986Z,19.33
2019-05-09T04:02:21.464Z,16.00
2019-05-09T04:04:49.929Z,13.67
2019-05-09T04:07:18.736Z,17.57
2019-05-09T04:09:48.004Z,16.50
2019-05-09T04:12:18.127Z,20.23
2019-05-09T04:14:48.063Z,17.63
2019-05-09T04:17:18.085Z,16.83
2019-05-09T04:19:47.866Z,14.90
2019-05-09T04:22:18.248Z,17.60
2019-05-09T04:24:47.484Z,19.30
2019-05-09T04:27:20.568Z,17.53
2019-05-09T04:29:50.437Z,19.60
2019-05-09T04:32:19.244Z,18.17
2019-05-09T04:34:47.720Z,19.50
2019-05-09T04:37:18.001Z,18.83
2019-05-09T04:39:47.682Z,16.10
2019-05-09T04:42:18.433Z,18.63
2019-05-09T04:44:57.466Z,20.03
2019-05-09T04:47:23.179Z,12.77
2019-05-09T04:49:51.680Z,18.90
2019-05-09T04:52:20.710Z,17.33
2019-05-09T04:54:49.176Z,18.70
2019-05-09T04:57:18.028Z,17.30
2019-05-09T04:59:47.524Z,21.67
2019-05-09T05:02:34.379Z,23.77
2019-05-09T05:05:02.827Z,19.20
2019-05-09T05:07:31.318Z,21.33
2019-05-09T05:09:59.791Z,23.90
2019-05-09T05:12:28.278Z,23.30
2019-05-09T05:14:58.000Z,15.23
2019-05-09T05:17:30.274Z,25.70
2019-05-09T05:19:58.046Z,23.57
2019-05-09T05:22:32.138Z,23.17
2019-05-09T05:25:02.681Z,25.30
2019-05-09T05:27:31.155Z,27.40
2019-05-09T05:29:59.622Z,24.53
2019-05-09T05:32:40.094Z,27.47
2019-05-09T05:35:28.455Z,21.67
2019-05-09T05:37:58.103Z,21.57
2019-05-09T05:40:32.734Z,24.57
2019-05-09T05:42:58.545Z,26.33
2019-05-09T05:45:28.932Z,24.33
2019-05-09T05:48:01.254Z,27.83
2019-05-09T05:50:29.699Z,32.30
2019-05-09T05:52:58.415Z,26.83
2019-05-09T05:55:27.542Z,27.20
2019-05-09T05:57:57.923Z,28.43
2019-05-09T06:00:28.676Z,29.50
2019-05-09T06:02:58.612Z,26.60
2019-05-09T06:05:27.795Z,29.27
2019-05-09T06:07:57.689Z,30.43
2019-05-09T06:10:28.790Z,30.60
2019-05-09T06:12:57.525Z,36.33
2019-05-09T06:15:28.621Z,27.97
2019-05-09T06:17:57.933Z,29.43
2019-05-09T06:20:28.140Z,36.27
2019-05-09T06:22:58.212Z,29.80
2019-05-09T06:25:30.435Z,31.40
2019-05-09T06:27:58.464Z,30.50
2019-05-09T06:30:28.606Z,35.43
2019-05-09T06:32:58.067Z,34.47
2019-05-09T06:35:28.261Z,30.77
2019-05-09T06:37:58.766Z,32.43
2019-05-09T06:40:28.755Z,31.80
2019-05-09T06:42:59.590Z,39.50
2019-05-09T06:45:49.853Z,34.37
2019-05-09T06:48:18.618Z,30.87
2019-05-09T06:50:48.323Z,27.70
2019-05-09T06:53:18.146Z,38.67
2019-05-09T06:55:47.602Z,38.80
2019-05-09T06:58:31.345Z,33.77
2019-05-09T07:01:07.776Z,31.33
2019-05-09T07:03:37.500Z,33.10
2019-05-09T07:06:10.388Z,31.57
2019-05-09T07:08:58.607Z,38.37
2019-05-09T07:11:27.613Z,36.57
2019-05-09T07:13:57.913Z,31.83
2019-05-09T07:16:27.699Z,34.37
2019-05-09T07:18:57.871Z,32.50
2019-05-09T07:21:45.525Z,26.27
2019-05-09T07:24:13.979Z,34.30
2019-05-09T07:26:42.467Z,33.90
2019-05-09T07:29:10.935Z,33.43
2019-05-09T07:31:44.023Z,35.27
2019-05-09T07:34:21.993Z,39.20
2019-05-09T07:36:50.444Z,36.67
2019-05-09T07:39:18.908Z,37.50
2019-05-09T07:41:47.923Z,30.77
2019-05-09T07:44:18.265Z,36.10
2019-05-09T07:46:52.866Z,30.10
2019-05-09T07:49:21.363Z,44.27
2019-05-09T07:51:49.919Z,48.43
2019-05-09T07:54:25.118Z,41.83
2019-05-09T07:56:48.687Z,37.27
2019-05-09T07:59:18.138Z,38.20
2019-05-09T08:01:48.713Z,41.53
2019-05-09T08:04:18.301Z,42.77
2019-05-09T08:06:48.639Z,38.87
2019-05-09T08:09:18.662Z,42.53
2019-05-09T08:11:48.325Z,38.53
2019-05-09T08:14:17.670Z,38.00
2019-05-09T08:16:47.553Z,29.90
2019-05-09T08:19:18.124Z,39.33
2019-05-09T08:21:47.988Z,35.20
2019-05-09T08:24:18.332Z,37.53
2019-05-09T08:26:47.819Z,38.90
2019-05-09T08:29:17.774Z,45.77
2019-05-09T08:31:48.542Z,35.40
2019-05-09T08:34:18.686Z,36.57
2019-05-09T08:36:47.729Z,34.57
2019-05-09T08:39:18.409Z,32.83
2019-05-09T08:41:48.515Z,40.83
2019-05-09T08:44:18.676Z,35.33
2019-05-09T08:46:48.121Z,37.83
2019-05-09T08:49:18.271Z,33.10
2019-05-09T08:52:05.939Z,38.03
2019-05-09T08:54:38.112Z,34.07
2019-05-09T08:57:07.660Z,30.20
2019-05-09T08:59:38.296Z,35.33
2019-05-09T09:02:16.552Z,32.73
2019-05-09T09:04:38.323Z,35.00
2019-05-09T09:07:08.435Z,33.03
2019-05-09T09:09:37.914Z,31.60
2019-05-09T09:12:25.173Z,38.87
2019-05-09T09:14:38.498Z,36.90
2019-05-09T09:17:07.908Z,38.37
2019-05-09T09:19:38.589Z,34.27
2019-05-09T09:22:08.879Z,33.10
2019-05-09T09:24:37.550Z,36.13
2019-05-09T09:27:07.697Z,36.50
2019-05-09T09:29:37.955Z,27.63
2019-05-09T09:32:08.336Z,30.63
2019-05-09T09:34:37.890Z,27.27
2019-05-09T09:37:11.376Z,27.07
2019-05-09T09:39:44.453Z,31.30
2019-05-09T09:42:09.028Z,25.37
2019-05-09T09:44:39.352Z,26.63
2019-05-09T09:47:08.376Z,31.53
2019-05-09T09:49:38.406Z,30.40
2019-05-09T09:52:08.619Z,30.13
2019-05-09T09:54:38.569Z,30.80
2019-05-09T09:57:09.629Z,25.90
2019-05-09T09:59:53.675Z,29.63
2019-05-09T10:02:27.774Z,28.50
2019-05-09T10:04:56.105Z,29.03
2019-05-09T10:07:24.568Z,27.67
2019-05-09T10:09:53.049Z,27.40
2019-05-09T10:12:21.573Z,29.23
2019-05-09T10:15:12.396Z,24.27
2019-05-09T10:17:49.681Z,23.27
2019-05-09T10:20:43.064Z,20.40
2019-05-09T10:23:18.123Z,18.30
2019-05-09T10:25:41.979Z,23.57
2019-05-09T10:28:10.525Z,19.50
2019-05-09T10:30:38.987Z,21.60
2019-05-09T10:33:09.167Z,23.30
2019-05-09T10:35:39.203Z,20.70
2019-05-09T10:38:08.880Z,20.30
2019-05-09T10:40:40.110Z,20.60
2019-05-09T10:43:39.009Z,19.33
2019-05-09T10:46:24.008Z,18.43
2019-05-09T10:48:58.753Z,18.60
2019-05-09T10:51:27.362Z,20.30
2019-05-09T10:53:55.819Z,15.70
2019-05-09T10:56:24.289Z,16.63
2019-05-09T10:58:53.084Z,15.10
2019-05-09T11:01:21.556Z,15.00
2019-05-09T11:03:50.025Z,11.90
2019-05-09T11:06:18.776Z,10.77
2019-05-09T11:08:48.140Z,7.47
2019-05-09T11:11:18.138Z,9.83
2019-05-09T11:13:48.176Z,8.03
2019-05-09T11:16:18.352Z,9.20
2019-05-09T11:18:48.258Z,11.07
2019-05-09T11:21:19.642Z,11.83
2019-05-09T11:23:48.805Z,9.57
2019-05-09T11:26:18.251Z,11.60
2019-05-09T11:28:46.932Z,7.73
2019-05-09T11:31:18.010Z,7.90
2019-05-09T11:33:48.137Z,10.17
2019-05-09T11:36:20.831Z,9.47
2019-05-09T11:38:49.066Z,7.37
2019-05-09T11:41:19.106Z,11.37
2019-05-09T11:43:48.509Z,7.73
2019-05-09T11:46:18.203Z,8.90
2019-05-09T11:48:46.701Z,7.40
2019-05-09T11:51:18.258Z,10.87
2019-05-09T11:53:45.418Z,7.70
2019-05-09T11:56:13.903Z,9.20
2019-05-09T11:58:42.362Z,6.93
2019-05-09T12:01:10.875Z,6.20
2019-05-09T12:03:39.333Z,6.83
2019-05-09T12:06:08.150Z,5.07
2019-05-09T12:08:38.766Z,6.97
2019-05-09T12:11:08.366Z,3.50
2019-05-09T12:13:38.035Z,5.03
2019-05-09T12:16:06.703Z,9.50
2019-05-09T12:18:37.683Z,2.90
2019-05-09T12:21:05.582Z,3.87
2019-05-09T12:23:34.033Z,7.77
2019-05-09T12:26:02.740Z,4.27
2019-05-09T12:28:31.207Z,2.47
2019-05-09T12:30:59.666Z,4.57
2019-05-09T12:33:29.618Z,3.60
2019-05-09T12:35:59.355Z,2.50
2019-05-09T12:38:27.954Z,5.97
2019-05-09T12:41:00.312Z,2.17
2019-05-09T12:43:28.330Z,2.70
2019-05-09T12:45:57.845Z,1.97
2019-05-09T12:48:27.875Z,2.43
2019-05-09T12:50:58.561Z,1.80
2019-05-09T12:53:28.040Z,3.47
2019-05-09T12:55:59.877Z,1.90
2019-05-09T12:58:28.877Z,1.53
2019-05-09T13:00:58.627Z,1.13
2019-05-09T13:03:27.771Z,1.77
2019-05-09T13:05:57.483Z,1.73
2019-05-09T13:08:27.815Z,2.93
2019-05-09T13:10:58.327Z,1.90
2019-05-09T13:13:29.115Z,1.30
2019-05-09T13:16:10.115Z,5.67
2019-05-09T13:18:54.591Z,2.00
2019-05-09T13:21:23.052Z,2.70
2019-05-09T13:23:52.505Z,1.73
2019-05-09T13:26:21.091Z,1.90
2019-05-09T13:28:49.551Z,2.70
2019-05-09T13:31:18.348Z,3.67
2019-05-09T13:33:48.765Z,2.03
2019-05-09T13:36:18.910Z,6.07
2019-05-09T13:38:57.579Z,4.10
2019-05-09T13:41:17.762Z,3.37
2019-05-09T13:43:56.840Z,1.73
2019-05-09T13:46:17.964Z,3.90
2019-05-09T13:49:05.761Z,1.37
2019-05-09T13:51:18.392Z,1.50
2019-05-09T13:53:48.373Z,1.83
2019-05-09T13:56:17.805Z,1.10
2019-05-09T13:58:48.715Z,2.77
2019-05-09T14:01:17.766Z,1.20
2019-05-09T14:03:49.038Z,3.33
2019-05-09T14:06:16.840Z,1.47
2019-05-09T14:08:48.619Z,3.23
2019-05-09T14:11:15.517Z,1.37
2019-05-09T14:13:43.974Z,1.10
2019-05-09T14:16:19.434Z,3.13
2019-05-09T14:18:43.002Z,2.97
2019-05-09T14:21:11.485Z,1.07
2019-05-09T14:23:51.022Z,1.97
2019-05-09T14:26:10.164Z,4.17
2019-05-09T14:28:38.626Z,2.60
2019-05-09T14:31:07.619Z,1.97
2019-05-09T14:33:38.775Z,1.20
2019-05-09T14:36:08.289Z,2.50
2019-05-09T14:38:39.109Z,1.40
2019-05-09T14:41:07.816Z,2.13
2019-05-09T14:43:39.324Z,2.23
2019-05-09T14:46:08.162Z,1.63
2019-05-09T14:48:37.030Z,2.80
2019-05-09T14:51:07.657Z,1.20
2019-05-09T14:53:35.942Z,2.77
2019-05-09T14:56:04.417Z,1.80
2019-05-09T14:58:32.896Z,2.67
2019-05-09T15:01:01.368Z,2.40
2019-05-09T15:03:29.877Z,2.53
2019-05-09T15:05:58.318Z,1.43
2019-05-09T15:08:27.942Z,3.20
2019-05-09T15:10:58.272Z,2.03
2019-05-09T15:13:28.641Z,2.30
2019-05-09T15:15:57.919Z,1.70
2019-05-09T15:18:26.467Z,0.70
2019-05-09T15:20:54.949Z,1.77
2019-05-09T15:23:23.428Z,3.23
2019-05-09T15:25:51.945Z,3.13
2019-05-09T15:28:20.661Z,2.03
2019-05-09T15:30:49.466Z,1.53
2019-05-09T15:33:17.935Z,1.67
2019-05-09T15:35:48.661Z,1.50
2019-05-09T15:38:18.141Z,2.57
2019-05-09T15:40:48.169Z,0.70
2019-05-09T15:43:18.629Z,3.00
2019-05-09T15:46:08.333Z,1.30
2019-05-09T15:48:38.080Z,1.93
2019-05-09T15:51:07.541Z,2.87
2019-05-09T15:53:38.124Z,2.23
2019-05-09T15:56:08.017Z,2.27
2019-05-09T15:58:38.547Z,3.17
2019-05-09T16:01:08.229Z,2.33
2019-05-09T16:03:38.206Z,2.07
2019-05-09T16:06:09.013Z,0.93
2019-05-09T16:08:38.226Z,2.73
2019-05-09T16:11:08.697Z,1.13
2019-05-09T16:13:37.352Z,3.40
2019-05-09T16:16:08.798Z,1.43
2019-05-09T16:18:36.086Z,2.67
2019-05-09T16:21:04.544Z,2.57
2019-05-09T16:23:32.998Z,1.57
2019-05-09T16:26:01.492Z,3.60
2019-05-09T16:28:29.953Z,2.87
2019-05-09T16:30:58.638Z,2.07
2019-05-09T16:33:27.884Z,3.43
2019-05-09T16:35:56.412Z,2.13
2019-05-09T16:38:38.807Z,1.83
2019-05-09T16:40:55.277Z,3.00
2019-05-09T16:43:23.734Z,1.40
2019-05-09T16:45:52.478Z,1.50
2019-05-09T16:48:21.253Z,2.93
2019-05-09T16:51:00.704Z,5.43
2019-05-09T16:53:19.946Z,1.40
2019-05-09T16:55:48.411Z,3.70
2019-05-09T16:58:18.602Z,1.40
2019-05-09T17:00:50.234Z,1.33
2019-05-09T17:03:18.690Z,2.53
2019-05-09T17:05:47.163Z,2.67
2019-05-09T17:08:17.766Z,2.00
2019-05-09T17:10:48.394Z,2.60
2019-05-09T17:13:18.452Z,3.50
2019-05-09T17:15:46.237Z,3.87
2019-05-09T17:18:14.715Z,1.73
2019-05-09T17:20:50.412Z,1.40
2019-05-09T17:23:21.374Z,1.50
2019-05-09T17:25:49.818Z,1.57
2019-05-09T17:28:18.307Z,4.03
2019-05-09T17:30:49.251Z,1.90
2019-05-09T17:33:17.249Z,2.07
2019-05-09T17:35:48.110Z,1.10
2019-05-09T17:38:18.094Z,1.03
2019-05-09T17:40:48.227Z,1.50
2019-05-09T17:43:18.236Z,1.33
2019-05-09T17:45:47.772Z,3.47
2019-05-09T17:48:18.289Z,1.77
2019-05-09T17:50:46.661Z,2.97
2019-05-09T17:53:15.136Z,3.47
2019-05-09T17:55:43.601Z,2.83
2019-05-09T17:58:25.856Z,2.97
2019-05-09T18:00:42.574Z,1.23
2019-05-09T18:03:11.317Z,1.93
2019-05-09T18:05:39.797Z,2.87
2019-05-09T18:08:08.296Z,2.37
2019-05-09T18:10:38.038Z,1.83
2019-05-09T18:13:07.929Z,3.23
2019-05-09T18:15:37.729Z,2.50
2019-05-09T18:18:06.632Z,1.73
2019-05-09T18:20:37.737Z,4.60
2019-05-09T18:23:05.263Z,2.00
2019-05-09T18:25:33.732Z,3.50
2019-05-09T18:28:02.198Z,2.80
2019-05-09T18:30:30.675Z,4.13
2019-05-09T18:33:10.089Z,1.83
2019-05-09T18:35:38.802Z,1.17
2019-05-09T18:38:08.014Z,5.27
2019-05-09T18:40:36.694Z,3.13
2019-05-09T18:43:07.566Z,1.83
2019-05-09T18:45:37.550Z,3.37
2019-05-09T18:48:08.272Z,1.93
2019-05-09T18:50:36.149Z,3.37
2019-05-09T18:53:04.634Z,1.70
2019-05-09T18:55:33.094Z,2.43
2019-05-09T18:58:01.555Z,2.03
2019-05-09T19:00:30.061Z,2.10
2019-05-09T19:02:58.525Z,3.93
2019-05-09T19:05:26.985Z,2.30
2019-05-09T19:07:55.675Z,2.30
2019-05-09T19:10:24.151Z,2.73
2019-05-09T19:12:52.611Z,2.77
2019-05-09T19:15:28.150Z,1.90
2019-05-09T19:18:23.478Z,4.33
2019-05-09T19:21:00.073Z,2.30
2019-05-09T19:23:28.550Z,2.80
2019-05-09T19:25:58.646Z,4.97
2019-05-09T19:28:27.389Z,3.30
2019-05-09T19:30:55.824Z,4.87
2019-05-09T19:33:24.281Z,7.63
2019-05-09T19:35:52.763Z,5.47
2019-05-09T19:38:21.828Z,7.60
2019-05-09T19:40:50.594Z,4.57
2019-05-09T19:43:19.107Z,4.07
2019-05-09T19:45:47.557Z,6.77
2019-05-09T19:48:16.019Z,3.97
2019-05-09T19:50:44.464Z,3.07
2019-05-09T19:53:12.985Z,2.40
2019-05-09T19:55:41.814Z,2.53
2019-05-09T19:58:10.266Z,3.80
2019-05-09T20:00:38.974Z,4.13
2019-05-09T20:03:07.742Z,5.50
2019-05-09T20:05:36.225Z,10.10
2019-05-09T20:08:04.735Z,13.53
2019-05-09T20:10:51.374Z,11.10
2019-05-09T20:13:30.993Z,12.60
2019-05-09T20:15:59.453Z,12.27
2019-05-09T20:18:27.924Z,9.60
2019-05-09T20:20:56.386Z,7.47
2019-05-09T20:23:24.889Z,8.60
2019-05-09T20:25:53.319Z,6.33
2019-05-09T20:28:21.788Z,5.93
2019-05-09T20:30:50.257Z,7.60
2019-05-09T20:33:18.716Z,9.47
2019-05-09T20:35:47.163Z,8.80
2019-05-09T20:38:16.140Z,13.73
2019-05-09T20:40:44.799Z,15.07
2019-05-09T20:43:13.456Z,13.60
2019-05-09T20:45:42.126Z,14.60
2019-05-09T20:48:10.795Z,13.40
2019-05-09T20:50:39.429Z,10.80
2019-05-09T20:53:09.953Z,10.20
2019-05-09T20:55:38.448Z,14.13
2019-05-09T20:58:07.163Z,7.27
2019-05-09T21:00:35.812Z,7.43
2019-05-09T21:03:07.915Z,4.60
2019-05-09T21:05:34.846Z,7.07
2019-05-09T21:08:03.514Z,7.90
2019-05-09T21:10:32.174Z,5.33
2019-05-09T21:13:00.837Z,7.47
2019-05-09T21:15:29.470Z,5.90
2019-05-09T21:17:58.107Z,8.87
2019-05-09T21:20:26.765Z,6.07
2019-05-09T21:22:55.416Z,5.20
2019-05-09T21:25:24.074Z,4.70
2019-05-09T21:27:52.785Z,4.37
2019-05-09T21:30:21.794Z,4.70
2019-05-09T21:32:50.502Z,3.97
2019-05-09T21:35:19.248Z,7.17
2019-05-09T21:37:47.742Z,4.67
2019-05-09T21:40:16.219Z,10.50
2019-05-09T21:42:44.713Z,6.83
2019-05-09T21:45:13.199Z,7.23
2019-05-09T21:47:41.680Z,8.90
2019-05-09T21:50:10.176Z,6.73
2019-05-09T21:52:38.881Z,6.07
2019-05-09T21:55:07.359Z,13.10
2019-05-09T21:57:35.812Z,9.90
2019-05-09T22:00:05.490Z,14.23
2019-05-09T22:02:33.923Z,13.07
2019-05-09T22:05:02.533Z,27.73
2019-05-09T22:07:30.949Z,14.80
2019-05-09T22:09:59.430Z,7.80
2019-05-09T22:12:27.885Z,5.83
2019-05-09T22:14:56.591Z,4.63
2019-05-09T22:17:35.647Z,5.30
2019-05-09T22:20:04.607Z,6.07
2019-05-09T22:22:34.970Z,4.03
2019-05-09T22:25:03.429Z,4.53
2019-05-09T22:27:31.911Z,7.17
2019-05-09T22:30:00.665Z,4.77
2019-05-09T22:32:29.150Z,6.03
2019-05-09T22:34:57.648Z,4.70
2019-05-09T22:37:26.141Z,5.30
2019-05-09T22:39:54.637Z,3.80
2019-05-09T22:42:23.093Z,4.30
2019-05-09T22:44:51.564Z,4.97
2019-05-09T22:47:20.341Z,5.13
2019-05-09T22:49:52.338Z,4.60
2019-05-09T22:52:19.021Z,5.77
2019-05-09T22:54:47.485Z,6.50
2019-05-09T22:57:15.989Z,11.60
2019-05-09T22:59:44.840Z,9.47
2019-05-09T23:02:13.350Z,11.90
2019-05-09T23:04:41.832Z,6.53
2019-05-09T23:07:10.324Z,7.93
2019-05-09T23:09:38.801Z,6.17
2019-05-09T23:12:07.287Z,5.03
2019-05-09T23:14:35.763Z,4.97
2019-05-09T23:17:04.417Z,6.73
2019-05-09T23:19:32.879Z,6.90
2019-05-09T23:22:01.349Z,6.33
2019-05-09T23:24:31.714Z,7.50
2019-05-09T23:27:00.195Z,8.73
2019-05-09T23:29:28.662Z,5.63
2019-05-09T23:32:08.725Z,8.00
2019-05-09T23:34:37.195Z,6.03
2019-05-09T23:37:05.677Z,6.13
2019-05-09T23:39:40.706Z,5.03
2019-05-09T23:42:09.198Z,4.93
2019-05-09T23:44:37.687Z,8.03
2019-05-09T23:47:06.186Z,8.43
2019-05-09T23:49:34.987Z,5.33
2019-05-09T23:52:03.453Z,4.20
2019-05-09T23:54:49.948Z,5.33
2019-05-09T23:57:36.014Z,7.37
